Time;durP1;ratioP1;P1;durP2;ratioP2;P2;SDS_P1;SDS_P2;PMS_P1;PMS_P2;Temp;Humidity;BMP_temperature;BMP_pressure;BME280_temperature;BME280_humidity;BME280_pressure;Samples;Min_cycle;Max_cycle;Signal;HPM_P1;HPM_P2
2021/09/25 00:00:37;;;;;;;3.77;2.50;;;14.40;88.60;;;;;;1924879;74;21065;-47
2021/09/25 00:02:53;;;;;;;2.37;2.12;;;14.30;88.60;;;;;;1916303;74;21018;-46
2021/09/25 00:05:23;;;;;;;4.35;2.25;;;14.30;88.70;;;;;;1924722;74;21088;-45
2021/09/25 00:07:52;;;;;;;5.30;2.95;;;14.30;88.80;;;;;;1924769;74;20998;-45
2021/09/25 00:10:22;;;;;;;5.83;2.65;;;14.30;88.70;;;;;;1924876;74;21472;-46
2021/09/25 00:12:52;;;;;;;4.08;2.22;;;14.40;89.60;;;;;;1924754;74;21011;-46
2021/09/25 00:15:21;;;;;;;3.22;2.30;;;14.40;89.00;;;;;;1924711;74;21074;-47
2021/09/25 00:17:51;;;;;;;6.20;2.58;;;14.50;89.10;;;;;;1924779;74;21045;-48
2021/09/25 00:20:20;;;;;;;2.70;2.37;;;14.50;89.10;;;;;;1924832;74;21019;-48
2021/09/25 00:22:50;;;;;;;6.37;2.27;;;14.50;89.50;;;;;;1924795;74;21011;-46
2021/09/25 00:25:20;;;;;;;3.52;2.60;;;14.50;89.10;;;;;;1924879;74;21092;-48
2021/09/25 00:27:50;;;;;;;4.05;3.02;;;14.50;88.90;;;;;;1924894;74;21093;-46
2021/09/25 00:30:20;;;;;;;6.78;2.30;;;14.50;89.10;;;;;;1924746;74;21022;-45
2021/09/25 00:32:54;;;;;;;3.27;2.02;;;14.50;89.40;;;;;;1924897;74;21014;-45
2021/09/25 00:35:20;;;;;;;5.42;2.40;;;14.50;89.20;;;;;;1914663;74;21086;-49
2021/09/25 00:37:50;;;;;;;4.58;2.20;;;14.50;89.30;;;;;;1905266;75;21077;-46
2021/09/25 00:40:20;;;;;;;2.80;1.92;;;14.50;89.30;;;;;;1905246;75;21019;-46
2021/09/25 00:42:49;;;;;;;8.80;2.90;;;14.50;89.60;;;;;;1905368;75;21462;-46
2021/09/25 00:45:19;;;;;;;3.55;2.40;;;14.50;89.60;;;;;;1905264;74;21093;-48
2021/09/25 00:47:49;;;;;;;4.87;2.40;;;14.40;89.50;;;;;;1905376;75;21039;-46
2021/09/25 00:50:18;;;;;;;6.35;2.40;;;14.40;90.10;;;;;;1905266;75;20999;-47
2021/09/25 00:52:47;;;;;;;2.10;1.65;;;14.40;90.10;;;;;;1905359;75;21023;-45
2021/09/25 00:55:17;;;;;;;4.58;2.50;;;14.40;90.00;;;;;;1905380;74;21145;-47
2021/09/25 00:57:47;;;;;;;6.65;2.77;;;14.40;90.00;;;;;;1905164;75;21071;-45
2021/09/25 01:00:17;;;;;;;3.58;1.90;;;14.30;90.10;;;;;;1905123;74;21089;-46
2021/09/25 01:02:46;;;;;;;3.15;1.95;;;14.40;90.10;;;;;;1905163;75;21074;-46
2021/09/25 01:05:17;;;;;;;3.10;2.10;;;14.40;90.10;;;;;;1905093;75;21012;-47
2021/09/25 01:07:47;;;;;;;3.22;1.75;;;14.40;90.10;;;;;;1905177;75;21043;-47
2021/09/25 01:10:17;;;;;;;3.42;1.98;;;14.40;90.20;;;;;;1905236;74;21078;-49
2021/09/25 01:12:47;;;;;;;4.90;2.58;;;14.30;90.20;;;;;;1905366;75;21085;-46
2021/09/25 01:15:17;;;;;;;4.75;2.62;;;14.30;90.00;;;;;;1905264;74;21113;-45
2021/09/25 01:17:47;;;;;;;4.30;2.42;;;14.30;90.20;;;;;;1905316;74;21077;-49
2021/09/25 01:20:17;;;;;;;4.67;2.05;;;14.30;90.10;;;;;;1905234;75;21023;-49
2021/09/25 01:22:46;;;;;;;3.72;2.55;;;14.30;90.10;;;;;;1905276;75;21085;-49
2021/09/25 01:25:16;;;;;;;3.92;2.55;;;14.40;90.10;;;;;;1905280;74;21089;-50
2021/09/25 01:27:45;;;;;;;3.75;2.72;;;14.40;90.00;;;;;;1905277;75;21040;-47
2021/09/25 01:30:16;;;;;;;3.55;2.40;;;14.40;90.10;;;;;;1905338;75;21122;-48
2021/09/25 01:32:48;;;;;;;4.47;2.72;;;14.40;90.10;;;;;;1905268;75;21089;-50
2021/09/25 01:35:20;;;;;;;5.67;2.98;;;14.40;90.10;;;;;;1905312;74;21055;-48
2021/09/25 01:37:52;;;;;;;4.12;2.35;;;14.40;90.20;;;;;;1905394;74;21093;-47
2021/09/25 01:40:22;;;;;;;4.95;3.00;;;14.30;90.00;;;;;;1905409;75;21028;-48
2021/09/25 01:42:51;;;;;;;4.65;2.72;;;14.30;90.10;;;;;;1905341;75;21074;-48
2021/09/25 01:45:21;;;;;;;4.25;2.75;;;14.30;90.10;;;;;;1905368;75;21071;-47
2021/09/25 01:47:50;;;;;;;4.20;2.62;;;14.30;90.20;;;;;;1905380;75;21475;-47
2021/09/25 01:50:20;;;;;;;3.20;2.58;;;14.30;90.20;;;;;;1905383;75;21024;-48
2021/09/25 01:52:49;;;;;;;4.00;2.58;;;14.30;90.20;;;;;;1905187;75;21015;-47
2021/09/25 01:55:18;;;;;;;3.10;2.52;;;14.30;90.20;;;;;;1905349;75;21039;-46
2021/09/25 01:57:48;;;;;;;4.35;2.62;;;14.30;90.20;;;;;;1905272;75;21023;-45
2021/09/25 02:00:17;;;;;;;2.90;2.47;;;14.30;90.20;;;;;;1905294;75;21199;-45
2021/09/25 02:02:47;;;;;;;3.15;2.50;;;14.30;90.20;;;;;;1905226;75;21011;-44
2021/09/25 02:05:17;;;;;;;4.08;2.83;;;14.40;90.30;;;;;;1905339;75;21016;-45
2021/09/25 02:07:46;;;;;;;3.30;2.60;;;14.40;90.20;;;;;;1905243;74;21011;-48
2021/09/25 02:10:16;;;;;;;2.62;2.42;;;14.40;90.20;;;;;;1905223;75;21012;-45
2021/09/25 02:12:46;;;;;;;4.85;2.58;;;14.40;90.20;;;;;;1905159;75;21008;-45
2021/09/25 02:15:16;;;;;;;2.77;2.58;;;14.50;90.30;;;;;;1905241;75;21000;-48
2021/09/25 02:17:45;;;;;;;3.08;2.47;;;14.50;90.20;;;;;;1905336;75;21023;-45
2021/09/25 02:20:15;;;;;;;4.53;2.87;;;14.50;90.10;;;;;;1905319;74;21024;-45
2021/09/25 02:22:44;;;;;;;3.50;2.37;;;14.50;90.20;;;;;;1905197;75;21081;-46
2021/09/25 02:25:14;;;;;;;3.10;2.50;;;14.50;90.10;;;;;;1905278;75;21040;-45
2021/09/25 02:27:43;;;;;;;2.67;2.45;;;14.40;90.10;;;;;;1905219;74;21024;-46
2021/09/25 02:30:15;;;;;;;2.95;2.35;;;14.40;90.20;;;;;;1905410;75;21052;-45
2021/09/25 02:32:45;;;;;;;13.05;3.15;;;14.40;90.20;;;;;;1905284;75;21568;-45
2021/09/25 02:35:17;;;;;;;4.72;3.00;;;14.40;90.10;;;;;;1905214;75;21085;-44
2021/09/25 02:37:46;;;;;;;3.42;3.02;;;14.40;90.20;;;;;;1923932;74;21059;-45
2021/09/25 02:40:17;;;;;;;4.03;2.70;;;14.40;90.30;;;;;;1924578;74;21076;-47
2021/09/25 02:42:47;;;;;;;5.10;3.02;;;14.40;90.20;;;;;;1924566;74;21155;-45
2021/09/25 02:45:17;;;;;;;3.65;2.60;;;14.40;90.20;;;;;;1924640;74;21131;-46
2021/09/25 02:47:47;;;;;;;3.15;2.27;;;14.30;90.20;;;;;;1924592;74;21019;-46
2021/09/25 02:50:17;;;;;;;3.37;2.45;;;14.30;90.20;;;;;;1924590;74;21014;-45
2021/09/25 02:52:47;;;;;;;4.08;2.62;;;14.30;90.20;;;;;;1924671;74;21522;-44
2021/09/25 02:55:17;;;;;;;4.05;2.83;;;14.30;90.20;;;;;;1924627;74;21015;-47
2021/09/25 02:57:47;;;;;;;5.12;2.70;;;14.30;90.20;;;;;;1924766;74;20995;-46
2021/09/25 03:00:19;;;;;;;3.42;3.12;;;14.30;90.20;;;;;;1924659;74;21022;-45
2021/09/25 03:02:48;;;;;;;5.22;3.17;;;14.30;90.20;;;;;;1924796;74;21121;-45
2021/09/25 03:05:18;;;;;;;5.10;3.05;;;14.30;90.30;;;;;;1924674;74;21084;-47
2021/09/25 03:07:47;;;;;;;4.10;2.83;;;14.30;90.30;;;;;;1924774;74;21022;-45
2021/09/25 03:10:17;;;;;;;4.22;2.80;;;14.30;90.30;;;;;;1924751;74;21010;-45
2021/09/25 03:12:46;;;;;;;2.90;2.50;;;14.30;90.30;;;;;;1924605;74;21073;-45
2021/09/25 03:15:16;;;;;;;3.65;2.80;;;14.30;90.30;;;;;;1924777;74;21039;-45
2021/09/25 03:17:45;;;;;;;4.37;2.40;;;14.30;90.20;;;;;;1924677;74;21027;-45
2021/09/25 03:20:15;;;;;;;3.87;2.72;;;14.30;90.30;;;;;;1924663;74;21441;-44
2021/09/25 03:22:44;;;;;;;3.20;2.47;;;14.30;90.30;;;;;;1924575;74;21080;-45
2021/09/25 03:25:14;;;;;;;3.40;2.42;;;14.30;90.30;;;;;;1924607;74;21050;-45
2021/09/25 03:27:44;;;;;;;4.62;2.80;;;14.30;90.30;;;;;;1924561;74;21092;-45
2021/09/25 03:30:14;;;;;;;5.05;2.80;;;14.30;90.40;;;;;;1924655;74;21050;-46
2021/09/25 03:32:45;;;;;;;4.83;2.83;;;14.40;90.40;;;;;;1924655;74;21065;-45
2021/09/25 03:35:14;;;;;;;4.53;3.02;;;14.40;90.40;;;;;;1924691;74;20987;-46
2021/09/25 03:37:44;;;;;;;5.92;3.10;;;14.40;90.40;;;;;;1924611;74;21109;-44
2021/09/25 03:40:14;;;;;;;5.37;2.70;;;14.40;90.40;;;;;;1924588;74;21019;-46
2021/09/25 03:42:43;;;;;;;3.02;2.42;;;14.40;90.30;;;;;;1924562;74;21139;-45
2021/09/25 03:45:13;;;;;;;2.90;2.60;;;14.40;90.40;;;;;;1924558;74;21050;-44
2021/09/25 03:47:42;;;;;;;3.25;2.55;;;14.40;90.40;;;;;;1924577;74;21090;-45
2021/09/25 03:50:12;;;;;;;5.28;3.05;;;14.40;90.40;;;;;;1924730;74;21022;-44
2021/09/25 03:52:42;;;;;;;3.45;2.42;;;14.40;90.30;;;;;;1924555;74;21101;-46
2021/09/25 03:55:11;;;;;;;3.98;2.77;;;14.40;90.30;;;;;;1924634;74;21019;-45
2021/09/25 03:57:41;;;;;;;4.50;3.00;;;14.30;90.40;;;;;;1924612;74;21105;-46
2021/09/25 04:00:11;;;;;;;4.90;3.10;;;14.30;90.40;;;;;;1924631;74;21068;-46
2021/09/25 04:02:40;;;;;;;7.92;3.05;;;14.30;90.50;;;;;;1924587;74;21077;-46
2021/09/25 04:05:11;;;;;;;3.98;2.90;;;14.30;90.50;;;;;;1924752;74;21008;-46
2021/09/25 04:07:40;;;;;;;4.17;2.72;;;14.30;90.50;;;;;;1924554;74;21076;-48
2021/09/25 04:10:10;;;;;;;3.52;2.90;;;14.30;90.50;;;;;;1924679;74;21018;-45
2021/09/25 04:12:40;;;;;;;5.22;2.98;;;14.40;90.50;;;;;;1924528;74;21080;-45
2021/09/25 04:15:11;;;;;;;4.75;3.83;;;14.40;90.50;;;;;;1924550;74;21019;-46
2021/09/25 04:17:41;;;;;;;9.05;3.95;;;14.40;90.50;;;;;;1924500;74;21084;-45
2021/09/25 04:20:10;;;;;;;5.22;3.92;;;14.40;90.40;;;;;;1924506;74;21070;-45
2021/09/25 04:22:40;;;;;;;8.88;4.80;;;14.30;90.40;;;;;;1924429;74;21018;-45
2021/09/25 04:25:10;;;;;;;6.65;4.30;;;14.40;90.50;;;;;;1924524;74;21007;-46
2021/09/25 04:27:39;;;;;;;6.87;3.50;;;14.40;90.60;;;;;;1924519;74;21020;-45
2021/09/25 04:30:09;;;;;;;6.80;4.20;;;14.40;90.50;;;;;;1924596;74;21019;-46
2021/09/25 04:32:38;;;;;;;7.87;4.25;;;14.40;90.60;;;;;;1924495;74;20998;-45
2021/09/25 04:35:08;;;;;;;5.28;4.10;;;14.50;90.60;;;;;;1924589;74;21026;-46
2021/09/25 04:37:38;;;;;;;6.47;4.67;;;14.50;90.50;;;;;;1916306;74;21121;-45
2021/09/25 04:40:08;;;;;;;7.72;5.25;;;14.50;90.50;;;;;;1905174;75;21024;-45
2021/09/25 04:42:38;;;;;;;6.92;4.45;;;14.50;90.50;;;;;;1905182;75;21016;-48
2021/09/25 04:45:11;;;;;;;5.28;4.33;;;14.50;90.50;;;;;;1905415;75;21220;-47
2021/09/25 04:47:40;;;;;;;5.75;3.70;;;14.50;90.50;;;;;;1905188;74;21144;-49
2021/09/25 04:50:10;;;;;;;7.62;5.42;;;14.60;90.50;;;;;;1904230;74;21465;-45
2021/09/25 04:52:40;;;;;;;6.67;4.10;;;14.60;90.50;;;;;;1905354;75;20999;-46
2021/09/25 04:55:10;;;;;;;4.80;3.75;;;14.60;90.50;;;;;;1905200;75;21081;-45
2021/09/25 04:57:40;;;;;;;3.77;2.95;;;14.60;90.50;;;;;;1905235;75;21019;-48
2021/09/25 05:00:11;;;;;;;7.17;4.15;;;14.60;90.40;;;;;;1905226;75;21067;-45
2021/09/25 05:02:41;;;;;;;5.85;3.65;;;14.60;90.50;;;;;;1905245;75;21090;-45
2021/09/25 05:05:11;;;;;;;4.62;4.12;;;14.60;90.50;;;;;;1905156;75;21073;-47
2021/09/25 05:07:40;;;;;;;6.12;3.60;;;14.60;90.40;;;;;;1905100;75;21023;-48
2021/09/25 05:10:10;;;;;;;6.35;3.55;;;14.60;90.70;;;;;;1905194;75;21417;-49
2021/09/25 05:12:39;;;;;;;5.05;3.10;;;14.60;90.40;;;;;;1905100;75;21053;-46
2021/09/25 05:15:09;;;;;;;6.40;3.10;;;14.60;90.30;;;;;;1905134;74;21109;-49
2021/09/25 05:17:39;;;;;;;6.53;3.92;;;14.60;90.30;;;;;;1905012;75;21000;-47
2021/09/25 05:20:09;;;;;;;5.35;3.37;;;14.60;90.20;;;;;;1905071;75;21089;-46
2021/09/25 05:22:39;;;;;;;8.75;3.33;;;14.50;90.20;;;;;;1905179;75;20995;-46
2021/09/25 05:25:08;;;;;;;3.33;2.58;;;14.50;90.20;;;;;;1905316;75;21089;-47
2021/09/25 05:27:38;;;;;;;3.95;2.90;;;14.50;90.10;;;;;;1905294;75;21136;-47
2021/09/25 05:30:09;;;;;;;5.05;2.65;;;14.40;90.10;;;;;;1905420;75;21007;-46
2021/09/25 05:32:38;;;;;;;3.70;2.90;;;14.40;90.00;;;;;;1905168;74;21027;-47
2021/09/25 05:35:08;;;;;;;4.37;3.30;;;14.40;90.00;;;;;;1905252;75;21051;-46
2021/09/25 05:37:38;;;;;;;3.50;2.67;;;14.40;90.00;;;;;;1905211;74;21067;-48
2021/09/25 05:40:08;;;;;;;4.90;3.77;;;14.30;90.00;;;;;;1905244;75;21097;-46
2021/09/25 05:42:38;;;;;;;6.72;3.27;;;14.40;90.00;;;;;;1905209;75;20996;-46
2021/09/25 05:45:08;;;;;;;4.78;3.35;;;14.30;89.80;;;;;;1905304;74;21019;-47
2021/09/25 05:47:37;;;;;;;3.42;2.90;;;14.30;89.70;;;;;;1905312;75;20987;-46
2021/09/25 05:50:07;;;;;;;6.78;3.92;;;14.30;89.70;;;;;;1905209;75;21097;-46
2021/09/25 05:52:36;;;;;;;4.17;3.65;;;14.30;89.70;;;;;;1905232;75;21012;-47
2021/09/25 05:55:07;;;;;;;8.25;3.62;;;14.30;89.70;;;;;;1905172;75;21075;-48
2021/09/25 05:57:37;;;;;;;7.53;3.90;;;14.40;89.80;;;;;;1905170;74;21028;-45
2021/09/25 06:00:07;;;;;;;10.25;3.77;;;14.40;89.80;;;;;;1905228;75;21015;-47
2021/09/25 06:02:41;;;;;;;9.23;4.78;;;14.40;89.80;;;;;;1899359;74;21113;-46
2021/09/25 06:05:11;;;;;;;5.03;3.72;;;14.40;89.70;;;;;;1905322;75;21089;-49
2021/09/25 06:07:41;;;;;;;6.28;4.00;;;14.40;89.60;;;;;;1905247;75;21105;-46
2021/09/25 06:10:11;;;;;;;5.03;3.77;;;14.40;89.60;;;;;;1905277;74;21003;-46
2021/09/25 06:12:41;;;;;;;5.58;3.85;;;14.40;89.50;;;;;;1905352;74;21105;-47
2021/09/25 06:15:11;;;;;;;5.28;3.80;;;14.50;89.40;;;;;;1905274;74;21128;-46
2021/09/25 06:17:42;;;;;;;8.10;4.17;;;14.50;89.30;;;;;;1905197;75;21027;-47
2021/09/25 06:20:12;;;;;;;8.30;4.28;;;14.50;89.30;;;;;;1905349;75;21551;-47
2021/09/25 06:22:41;;;;;;;5.92;3.98;;;14.50;89.40;;;;;;1905315;75;21066;-47
2021/09/25 06:25:11;;;;;;;11.08;4.40;;;14.60;89.20;;;;;;1905269;75;21426;-46
2021/09/25 06:27:41;;;;;;;6.83;4.55;;;14.60;89.20;;;;;;1905371;75;21088;-46
2021/09/25 06:30:11;;;;;;;6.72;3.98;;;14.70;89.10;;;;;;1905191;75;21023;-48
2021/09/25 06:32:40;;;;;;;9.80;4.80;;;14.80;88.70;;;;;;1905253;75;21003;-46
2021/09/25 06:35:11;;;;;;;6.12;4.42;;;14.90;88.60;;;;;;1905227;75;21120;-47
2021/09/25 06:37:40;;;;;;;6.50;4.53;;;15.00;88.40;;;;;;1905220;75;21020;-46
2021/09/25 06:40:11;;;;;;;6.03;4.62;;;15.10;88.50;;;;;;1905241;74;21055;-49
2021/09/25 06:42:42;;;;;;;7.08;4.12;;;15.10;88.40;;;;;;1905317;75;20988;-46
2021/09/25 06:45:12;;;;;;;5.83;4.50;;;15.10;87.90;;;;;;1905230;75;21051;-46
2021/09/25 06:47:42;;;;;;;4.83;3.77;;;15.20;88.00;;;;;;1905253;75;21016;-46
2021/09/25 06:50:12;;;;;;;5.90;3.83;;;15.20;87.80;;;;;;1905449;75;21027;-47
2021/09/25 06:52:41;;;;;;;5.05;3.90;;;15.20;87.90;;;;;;1905163;75;21024;-46
2021/09/25 06:55:11;;;;;;;5.97;4.62;;;15.40;87.90;;;;;;1905302;75;21028;-47
2021/09/25 06:57:40;;;;;;;7.05;4.30;;;15.40;87.80;;;;;;1905130;75;21104;-48
2021/09/25 07:00:10;;;;;;;5.30;3.98;;;15.50;87.50;;;;;;1905198;75;21101;-48
2021/09/25 07:02:40;;;;;;;10.95;5.12;;;15.50;87.50;;;;;;1905167;74;21023;-46
2021/09/25 07:05:10;;;;;;;5.47;4.12;;;15.60;87.10;;;;;;1905318;74;21019;-50
2021/09/25 07:07:40;;;;;;;6.53;5.08;;;15.70;87.20;;;;;;1905188;75;21032;-49
2021/09/25 07:10:11;;;;;;;7.65;5.12;;;15.80;86.80;;;;;;1905231;75;21085;-47
2021/09/25 07:12:41;;;;;;;8.45;4.37;;;15.90;86.80;;;;;;1905187;75;21080;-46
2021/09/25 07:15:12;;;;;;;6.22;4.78;;;15.90;86.40;;;;;;1905165;75;21038;-46
2021/09/25 07:17:41;;;;;;;10.38;4.45;;;16.00;86.10;;;;;;1905187;75;20995;-47
2021/09/25 07:20:11;;;;;;;9.45;5.45;;;16.00;85.40;;;;;;1905351;74;21031;-49
2021/09/25 07:22:40;;;;;;;7.00;5.15;;;16.10;84.70;;;;;;1905099;75;21081;-48
2021/09/25 07:25:10;;;;;;;7.47;4.37;;;16.10;83.40;;;;;;1905014;74;21089;-49
2021/09/25 07:27:40;;;;;;;7.28;4.58;;;16.00;82.40;;;;;;1904936;75;21015;-46
2021/09/25 07:30:10;;;;;;;7.72;4.85;;;16.10;82.70;;;;;;1905233;75;21105;-46
2021/09/25 07:32:39;;;;;;;10.10;6.17;;;16.00;82.20;;;;;;1905112;75;21023;-46
2021/09/25 07:35:11;;;;;;;5.85;4.10;;;16.00;82.70;;;;;;1905140;75;20999;-49
2021/09/25 07:37:41;;;;;;;5.05;3.30;;;16.10;81.80;;;;;;1905050;74;21022;-46
2021/09/25 07:40:12;;;;;;;5.20;3.15;;;16.20;80.00;;;;;;1919926;74;21038;-48
2021/09/25 07:42:41;;;;;;;6.33;3.20;;;16.20;79.10;;;;;;1924536;74;21019;-46
2021/09/25 07:45:11;;;;;;;8.10;3.67;;;16.20;77.70;;;;;;1924638;74;21042;-49
2021/09/25 07:47:41;;;;;;;6.72;3.15;;;16.10;78.10;;;;;;1924483;74;21119;-46
2021/09/25 07:50:11;;;;;;;3.10;2.80;;;16.20;76.90;;;;;;1924622;74;21026;-50
2021/09/25 07:52:42;;;;;;;4.50;2.95;;;16.20;77.10;;;;;;1924592;74;21088;-46
2021/09/25 07:55:12;;;;;;;4.05;3.65;;;16.30;76.50;;;;;;1924575;74;21088;-48
2021/09/25 07:57:43;;;;;;;6.20;3.90;;;16.40;76.10;;;;;;1924441;74;21085;-46
2021/09/25 08:00:14;;;;;;;5.72;3.25;;;16.40;75.70;;;;;;1924597;74;21077;-47
2021/09/25 08:02:44;;;;;;;5.05;3.92;;;16.40;75.90;;;;;;1924551;74;21023;-48
2021/09/25 08:05:14;;;;;;;5.05;3.37;;;16.30;76.60;;;;;;1924671;74;21026;-46
2021/09/25 08:07:43;;;;;;;5.72;3.40;;;16.40;76.40;;;;;;1924585;74;21010;-49
2021/09/25 08:10:15;;;;;;;5.22;3.47;;;16.50;76.00;;;;;;1924675;74;21014;-47
2021/09/25 08:12:44;;;;;;;5.00;3.22;;;16.70;76.70;;;;;;1924569;74;21014;-45
2021/09/25 08:15:16;;;;;;;6.30;3.42;;;16.80;74.70;;;;;;1924489;74;21057;-47
2021/09/25 08:17:46;;;;;;;6.53;3.95;;;16.80;74.80;;;;;;1924637;74;21101;-47
2021/09/25 08:20:17;;;;;;;24.70;9.15;;;16.80;75.00;;;;;;1924677;74;21022;-46
2021/09/25 08:22:47;;;;;;;8.33;3.65;;;16.90;74.50;;;;;;1924546;74;21054;-47
2021/09/25 08:25:17;;;;;;;4.95;3.35;;;16.80;72.70;;;;;;1924498;74;21094;-46
2021/09/25 08:27:47;;;;;;;3.47;2.75;;;16.80;73.80;;;;;;1924577;74;21046;-46
2021/09/25 08:30:17;;;;;;;4.47;2.87;;;16.70;71.80;;;;;;1924584;74;21175;-47
2021/09/25 08:32:47;;;;;;;5.05;3.25;;;16.50;72.10;;;;;;1924541;74;21094;-46
2021/09/25 08:35:17;;;;;;;2.83;1.90;;;16.40;72.70;;;;;;1924498;74;21050;-50
2021/09/25 08:37:46;;;;;;;4.37;2.42;;;16.30;71.40;;;;;;1924528;74;21053;-49
2021/09/25 08:40:19;;;;;;;4.08;2.55;;;16.30;72.10;;;;;;1914076;74;21563;-49
2021/09/25 08:42:48;;;;;;;6.55;3.90;;;16.30;73.00;;;;;;1905106;75;21039;-46
2021/09/25 08:45:17;;;;;;;4.97;2.85;;;16.30;73.00;;;;;;1905201;75;21081;-49
2021/09/25 08:47:47;;;;;;;7.22;3.85;;;16.30;73.40;;;;;;1905049;75;21156;-50
2021/09/25 08:50:18;;;;;;;2.52;2.00;;;16.30;73.30;;;;;;1905201;74;21125;-48
2021/09/25 08:52:47;;;;;;;2.65;2.08;;;16.30;72.40;;;;;;1905108;75;21093;-49
2021/09/25 08:55:17;;;;;;;2.65;2.45;;;16.20;71.60;;;;;;1905114;75;21059;-49
2021/09/25 08:57:46;;;;;;;2.83;2.30;;;16.20;72.00;;;;;;1905078;75;21051;-48
2021/09/25 09:00:33;;;;;;;5.20;2.40;;;16.20;72.20;;;;;;1905103;74;21089;-47
2021/09/25 09:03:25;;;;;;;4.55;2.47;;;16.20;72.70;;;;;;1903661;75;21087;-48
2021/09/25 09:05:57;;;;;;;3.33;2.27;;;16.20;73.10;;;;;;1904267;74;21047;-46
2021/09/25 09:08:27;;;;;;;5.95;2.72;;;16.10;72.40;;;;;;1878192;74;21148;-49
2021/09/25 09:10:56;;;;;;;5.12;2.27;;;16.10;72.10;;;;;;1905146;74;21047;-46
2021/09/25 09:13:26;;;;;;;5.42;3.72;;;16.00;72.20;;;;;;1905182;75;21067;-49
2021/09/25 09:15:55;;;;;;;8.60;3.00;;;16.00;73.20;;;;;;1905191;75;21000;-48
2021/09/25 09:18:25;;;;;;;6.67;2.90;;;16.00;73.90;;;;;;1905182;75;21027;-49
2021/09/25 09:21:09;;;;;;;5.25;2.60;;;15.90;73.80;;;;;;1905131;74;21023;-48
2021/09/25 09:23:43;;;;;;;4.92;3.35;;;15.80;74.20;;;;;;1905091;75;21089;-50
2021/09/25 09:26:15;;;;;;;7.17;2.77;;;15.80;74.60;;;;;;1905143;75;21086;-49
2021/09/25 09:28:45;;;;;;;7.25;4.10;;;15.80;75.50;;;;;;1905238;75;21015;-49
2021/09/25 09:31:14;;;;;;;27.98;14.38;;;15.80;76.60;;;;;;1905203;75;21027;-47
2021/09/25 09:33:55;;;;;;;24.23;10.53;;;15.90;76.10;;;;;;1905280;75;21000;-47
2021/09/25 09:36:32;;;;;;;9.70;4.85;;;16.00;76.30;;;;;;1905123;75;21015;-47
2021/09/25 09:39:04;;;;;;;5.17;3.22;;;16.10;77.00;;;;;;1905415;75;21069;-50
2021/09/25 09:41:46;;;;;;;5.10;3.02;;;16.00;77.10;;;;;;1921351;74;21047;-47
2021/09/25 09:44:20;;;;;;;4.47;2.77;;;15.80;77.40;;;;;;1924648;74;21015;-50
2021/09/25 09:47:00;;;;;;;3.02;2.72;;;15.70;77.70;;;;;;1924704;74;21011;-47
2021/09/25 09:49:35;;;;;;;3.67;2.58;;;15.50;76.60;;;;;;1924425;74;21006;-46
2021/09/25 09:52:10;;;;;;;9.63;3.90;;;15.40;77.30;;;;;;1924455;74;21018;-46
2021/09/25 09:54:44;;;;;;;8.30;4.60;;;15.40;77.70;;;;;;1924985;74;21455;-46
2021/09/25 09:57:16;;;;;;;4.63;3.57;;;15.40;78.10;;;;;;1924916;74;21084;-46
2021/09/25 09:59:47;;;;;;;7.00;3.10;;;15.40;78.50;;;;;;1924862;74;21673;-48
2021/09/25 10:02:17;;;;;;;5.67;2.95;;;15.40;78.60;;;;;;1924804;74;21084;-46
2021/09/25 10:04:47;;;;;;;5.20;2.45;;;15.40;78.80;;;;;;1924752;74;21079;-46
2021/09/25 10:07:16;;;;;;;5.50;3.25;;;15.40;79.10;;;;;;1924696;74;21088;-49
2021/09/25 10:09:46;;;;;;;3.50;2.87;;;15.60;79.50;;;;;;1924680;74;21019;-46
2021/09/25 10:12:17;;;;;;;3.42;2.30;;;15.70;79.40;;;;;;1924715;74;21472;-47
2021/09/25 10:14:47;;;;;;;3.10;2.75;;;15.90;79.40;;;;;;1924717;74;21038;-46
2021/09/25 10:17:17;;;;;;;7.35;3.87;;;16.10;79.60;;;;;;1924632;74;21054;-47
2021/09/25 10:19:47;;;;;;;10.28;3.30;;;16.20;79.40;;;;;;1924720;74;21069;-46
2021/09/25 10:22:31;;;;;;;5.70;2.95;;;16.30;79.10;;;;;;1924667;74;21367;-48
2021/09/25 10:25:03;;;;;;;6.28;2.60;;;16.40;78.20;;;;;;1925015;74;21037;-50
2021/09/25 10:27:41;;;;;;;3.65;3.12;;;16.50;77.80;;;;;;1924617;74;21022;-46
2021/09/25 10:30:12;;;;;;;6.10;2.83;;;16.50;77.70;;;;;;1924677;74;21034;-50
2021/09/25 10:32:54;;;;;;;11.00;4.22;;;16.50;77.60;;;;;;1924692;74;21018;-47
2021/09/25 10:35:24;;;;;;;9.28;3.98;;;16.50;77.80;;;;;;1923755;74;21042;-46
2021/09/25 10:37:55;;;;;;;4.45;3.20;;;16.40;78.40;;;;;;1924637;74;21022;-45
2021/09/25 10:40:27;;;;;;;4.75;2.72;;;16.40;78.80;;;;;;1922475;74;20999;-45
2021/09/25 10:43:05;;;;;;;5.62;3.52;;;16.40;78.80;;;;;;1905296;74;21095;-47
2021/09/25 10:45:38;;;;;;;5.03;2.70;;;16.30;78.90;;;;;;1905322;75;21043;-48
2021/09/25 10:48:12;;;;;;;3.93;2.40;;;16.40;79.10;;;;;;1905460;74;21132;-48
2021/09/25 10:50:54;;;;;;;6.47;3.20;;;16.40;78.80;;;;;;1905194;75;21338;-49
2021/09/25 10:53:26;;;;;;;4.20;3.00;;;16.50;79.30;;;;;;1905267;75;21089;-46
2021/09/25 10:55:57;;;;;;;5.12;2.87;;;16.60;79.50;;;;;;1905287;75;21047;-50
2021/09/25 10:58:32;;;;;;;4.95;3.47;;;16.70;79.80;;;;;;1905172;75;21046;-48
2021/09/25 11:01:06;;;;;;;6.50;2.98;;;16.70;79.80;;;;;;1904450;74;21023;-50
2021/09/25 11:03:47;;;;;;;15.90;6.60;;;16.80;78.30;;;;;;1905414;74;21019;-49
2021/09/25 11:06:40;;;;;;;13.03;5.78;;;16.70;75.60;;;;;;1905245;75;21039;-50
2021/09/25 11:09:30;;;;;;;3.20;2.15;;;16.70;67.80;;;;;;1905219;75;20999;-47
2021/09/25 11:12:14;;;;;;;1.65;1.25;;;16.70;71.10;;;;;;1905256;75;21020;-46
2021/09/25 11:14:45;;;;;;;1.85;1.70;;;16.80;71.40;;;;;;1905022;74;21016;-47
2021/09/25 11:17:17;;;;;;;1.85;1.32;;;16.80;70.70;;;;;;1905050;74;21092;-50
2021/09/25 11:19:54;;;;;;;3.85;2.05;;;17.00;70.00;;;;;;1905342;75;20987;-48
2021/09/25 11:22:34;;;;;;;2.52;1.72;;;17.00;68.50;;;;;;1905206;75;20996;-51
2021/09/25 11:25:18;;;;;;;6.10;2.00;;;17.00;68.20;;;;;;1905216;75;20995;-50
2021/09/25 11:27:49;;;;;;;4.80;2.30;;;17.00;69.00;;;;;;1905217;75;21168;-49
2021/09/25 11:30:24;;;;;;;7.47;1.87;;;16.90;70.60;;;;;;1905223;74;21000;-49
2021/09/25 11:32:56;;;;;;;8.15;2.60;;;16.80;71.90;;;;;;1905275;75;21024;-47
2021/09/25 11:35:36;;;;;;;8.10;3.00;;;16.70;72.60;;;;;;1905056;74;21478;-51
2021/09/25 11:38:09;;;;;;;14.40;10.23;;;16.50;73.40;;;;;;1905093;75;21012;-50
2021/09/25 11:40:49;;;;;;;3.83;2.65;;;16.50;74.60;;;;;;1905252;75;21027;-50
2021/09/25 11:43:17;;;;;;;6.80;2.83;;;16.50;75.60;;;;;;1904507;74;21015;-49
2021/09/25 11:45:49;;;;;;;4.20;2.62;;;16.50;75.50;;;;;;1905177;75;21110;-49
2021/09/25 11:48:29;;;;;;;4.30;2.42;;;16.50;75.50;;;;;;1905343;75;21063;-51
2021/09/25 11:50:56;;;;;;;4.08;2.20;;;16.50;75.00;;;;;;1903854;74;21035;-50
2021/09/25 11:53:28;;;;;;;3.30;2.40;;;16.50;75.00;;;;;;1905253;75;21081;-51
2021/09/25 11:55:57;;;;;;;5.03;2.72;;;16.60;74.90;;;;;;1905295;75;21069;-48
2021/09/25 11:58:28;;;;;;;6.37;2.30;;;16.70;74.10;;;;;;1905360;75;21047;-51
2021/09/25 12:01:01;;;;;;;9.05;3.30;;;16.70;75.00;;;;;;1905280;75;21004;-50
2021/09/25 12:03:39;;;;;;;30.12;16.70;;;16.70;74.70;;;;;;1905242;75;21022;-50
2021/09/25 12:06:05;;;;;;;41.75;22.50;;;16.80;71.20;;;;;;1905160;74;21023;-48
2021/09/25 12:08:34;;;;;;;11.12;6.45;;;16.80;70.40;;;;;;1905367;74;21442;-51
2021/09/25 12:11:06;;;;;;;12.70;6.12;;;16.70;70.10;;;;;;1905305;75;21066;-48
2021/09/25 12:13:37;;;;;;;5.05;2.30;;;16.80;70.40;;;;;;1905346;75;20991;-48
2021/09/25 12:16:18;;;;;;;4.22;2.10;;;16.90;70.10;;;;;;1905310;75;20995;-47
2021/09/25 12:18:50;;;;;;;2.50;1.72;;;16.90;69.40;;;;;;1904533;74;21066;-47
2021/09/25 12:21:24;;;;;;;4.75;2.12;;;16.90;68.70;;;;;;1905143;74;21450;-50
2021/09/25 12:24:07;;;;;;;4.57;2.10;;;16.90;68.30;;;;;;1905458;75;21082;-47
2021/09/25 12:26:48;;;;;;;6.92;2.60;;;17.00;69.50;;;;;;1905198;75;21015;-50
2021/09/25 12:29:16;;;;;;;4.15;2.37;;;17.00;69.70;;;;;;1900922;74;21110;-48
2021/09/25 12:31:45;;;;;;;5.70;2.08;;;17.00;69.30;;;;;;1905284;74;21410;-50
2021/09/25 12:34:24;;;;;;;7.00;3.20;;;17.10;69.20;;;;;;1905189;75;21083;-47
2021/09/25 12:36:54;;;;;;;4.17;1.95;;;17.10;69.40;;;;;;1905208;75;21019;-50
2021/09/25 12:39:26;;;;;;;5.58;2.37;;;17.10;67.20;;;;;;1905204;75;21083;-46
2021/09/25 12:41:58;;;;;;;3.30;2.30;;;17.10;67.80;;;;;;1905040;74;21059;-50
2021/09/25 12:44:30;;;;;;;4.08;2.02;;;17.00;68.30;;;;;;1905291;75;21020;-46
2021/09/25 12:47:00;;;;;;;5.62;2.62;;;16.90;68.20;;;;;;1905231;74;21020;-46
2021/09/25 12:49:37;;;;;;;5.55;2.75;;;16.80;68.90;;;;;;1905155;75;21095;-49
2021/09/25 12:52:13;;;;;;;5.87;2.62;;;16.80;69.60;;;;;;1905195;75;21043;-49
2021/09/25 12:54:45;;;;;;;5.15;2.37;;;16.70;69.70;;;;;;1905282;75;20988;-47
2021/09/25 12:57:24;;;;;;;4.67;2.37;;;16.60;70.20;;;;;;1905224;74;21011;-48
2021/09/25 13:00:02;;;;;;;5.40;3.52;;;16.50;70.20;;;;;;1905258;74;21043;-47
2021/09/25 13:02:32;;;;;;;10.70;3.30;;;16.50;70.60;;;;;;1905234;75;21527;-49
2021/09/25 13:05:03;;;;;;;7.72;2.75;;;16.40;71.00;;;;;;1905264;75;21019;-48